createdAt,value
2018-12-05T00:01:16.164Z,16.73
2018-12-05T00:03:44.342Z,13.30
2018-12-05T00:06:12.619Z,19.07
2018-12-05T00:08:40.770Z,16.10
2018-12-05T00:11:09.248Z,17.00
2018-12-05T00:13:37.359Z,21.20
2018-12-05T00:16:05.557Z,21.83
2018-12-05T00:18:33.713Z,20.93
2018-12-05T00:21:01.895Z,17.03
2018-12-05T00:23:30.139Z,18.50
2018-12-05T00:25:58.419Z,21.67
2018-12-05T00:28:26.675Z,22.40
2018-12-05T00:30:54.862Z,20.90
2018-12-05T00:33:23.330Z,22.03
2018-12-05T00:35:51.473Z,23.57
2018-12-05T00:38:19.620Z,18.70
2018-12-05T00:40:47.833Z,22.97
2018-12-05T00:43:15.982Z,21.10
2018-12-05T00:45:44.117Z,21.47
2018-12-05T00:48:13.076Z,21.33
2018-12-05T00:50:41.315Z,25.33
2018-12-05T00:53:09.454Z,21.83
2018-12-05T00:55:37.626Z,27.40
2018-12-05T00:58:05.758Z,20.50
2018-12-05T01:00:34.061Z,23.53
2018-12-05T01:03:02.278Z,19.07
2018-12-05T01:05:30.399Z,17.90
2018-12-05T01:07:59.620Z,21.80
2018-12-05T01:10:27.867Z,20.60
2018-12-05T01:12:56.069Z,20.10
2018-12-05T01:15:25.086Z,21.23
2018-12-05T01:17:53.309Z,22.37
2018-12-05T01:20:22.333Z,24.97
2018-12-05T01:22:51.040Z,27.43
2018-12-05T01:25:19.182Z,29.20
2018-12-05T01:27:47.668Z,25.40
2018-12-05T01:30:15.900Z,27.50
2018-12-05T01:32:44.064Z,26.50
2018-12-05T01:35:12.363Z,25.80
2018-12-05T01:37:40.505Z,33.10
2018-12-05T01:40:08.822Z,29.03
2018-12-05T01:42:37.054Z,30.37
2018-12-05T01:45:05.378Z,30.83
2018-12-05T01:47:33.530Z,23.90
2018-12-05T01:50:01.854Z,31.10
2018-12-05T01:52:30.218Z,25.87
2018-12-05T01:54:58.380Z,31.00
2018-12-05T01:57:27.029Z,31.57
2018-12-05T01:59:55.240Z,30.03
2018-12-05T02:02:23.382Z,27.77
2018-12-05T02:04:51.524Z,26.40
2018-12-05T02:07:19.829Z,28.90
2018-12-05T02:09:48.350Z,24.50
2018-12-05T02:12:16.577Z,30.07
2018-12-05T02:14:44.699Z,33.77
2018-12-05T02:17:13.292Z,31.40
2018-12-05T02:19:41.451Z,32.03
2018-12-05T02:22:10.357Z,30.67
2018-12-05T02:24:38.575Z,29.43
2018-12-05T02:27:06.705Z,28.43
2018-12-05T02:29:40.653Z,32.03
2018-12-05T02:32:08.784Z,29.20
2018-12-05T02:34:37.108Z,33.17
2018-12-05T02:37:05.260Z,30.20
2018-12-05T02:39:33.597Z,29.23
2018-12-05T02:42:01.839Z,29.13
2018-12-05T02:44:30.154Z,30.40
2018-12-05T02:46:58.355Z,29.70
2018-12-05T02:49:26.685Z,27.70
2018-12-05T02:51:54.924Z,28.60
2018-12-05T02:54:23.127Z,29.53
2018-12-05T02:56:51.337Z,27.83
2018-12-05T02:59:19.507Z,27.70
2018-12-05T03:01:47.884Z,26.80
2018-12-05T03:04:16.105Z,22.83
2018-12-05T03:06:44.322Z,28.07
2018-12-05T03:09:12.653Z,27.13
2018-12-05T03:11:40.833Z,29.63
2018-12-05T03:14:09.017Z,33.63
2018-12-05T03:16:37.341Z,29.60
2018-12-05T03:19:05.569Z,25.33
2018-12-05T03:21:34.043Z,30.23
2018-12-05T03:24:02.252Z,30.97
2018-12-05T03:26:30.460Z,27.70
2018-12-05T03:28:58.618Z,31.87
2018-12-05T03:31:27.316Z,28.67
2018-12-05T03:33:55.521Z,30.40
2018-12-05T03:36:24.430Z,29.17
2018-12-05T03:38:52.627Z,28.13
2018-12-05T03:41:20.763Z,23.83
2018-12-05T03:43:49.039Z,31.07
2018-12-05T03:46:17.232Z,27.77
2018-12-05T03:48:45.503Z,34.67
2018-12-05T03:51:13.883Z,32.43
2018-12-05T03:53:42.092Z,31.07
2018-12-05T03:56:10.229Z,31.90
2018-12-05T03:58:38.436Z,34.17
2018-12-05T04:01:06.769Z,34.60
2018-12-05T04:03:34.968Z,35.70
2018-12-05T04:06:03.273Z,31.80
2018-12-05T04:08:31.400Z,38.53
2018-12-05T04:11:00.002Z,34.27
2018-12-05T04:13:28.214Z,37.30
2018-12-05T04:15:56.611Z,34.07
2018-12-05T04:18:24.769Z,38.63
2018-12-05T04:20:52.962Z,38.97
2018-12-05T04:23:21.252Z,36.53
2018-12-05T04:25:49.411Z,44.03
2018-12-05T04:28:17.618Z,44.73
2018-12-05T04:30:45.773Z,38.50
2018-12-05T04:33:13.937Z,44.67
2018-12-05T04:35:42.245Z,41.53
2018-12-05T04:38:10.454Z,49.33
2018-12-05T04:40:38.619Z,41.97
2018-12-05T04:43:06.869Z,48.30
2018-12-05T04:45:35.322Z,43.20
2018-12-05T04:48:03.444Z,42.53
2018-12-05T04:50:34.483Z,49.10
2018-12-05T04:53:02.963Z,47.17
2018-12-05T04:55:31.780Z,51.70
2018-12-05T04:57:59.979Z,53.37
2018-12-05T05:00:28.271Z,46.03
2018-12-05T05:02:56.516Z,48.73
2018-12-05T05:05:24.655Z,42.20
2018-12-05T05:07:52.975Z,41.33
2018-12-05T05:10:21.562Z,45.67
2018-12-05T05:12:49.861Z,40.20
2018-12-05T05:15:18.020Z,44.33
2018-12-05T05:17:46.385Z,47.90
2018-12-05T05:20:14.615Z,44.40
2018-12-05T05:22:42.903Z,45.07
2018-12-05T05:25:11.218Z,52.57
2018-12-05T05:27:45.706Z,47.27
2018-12-05T05:30:09.606Z,47.10
2018-12-05T05:32:37.807Z,46.90
2018-12-05T05:35:06.648Z,45.97
2018-12-05T05:37:34.799Z,46.77
2018-12-05T05:40:03.838Z,43.80
2018-12-05T05:42:32.119Z,52.90
2018-12-05T05:45:00.574Z,49.10
2018-12-05T05:47:28.777Z,47.90
2018-12-05T05:49:57.061Z,59.50
2018-12-05T05:52:25.511Z,50.83
2018-12-05T05:54:54.044Z,57.27
2018-12-05T05:57:22.170Z,49.43
2018-12-05T05:59:50.406Z,51.00
2018-12-05T06:02:20.291Z,50.40
2018-12-05T06:04:49.135Z,48.27
2018-12-05T06:07:17.653Z,53.57
2018-12-05T06:09:46.561Z,51.70
2018-12-05T06:12:14.746Z,47.70
2018-12-05T06:14:42.903Z,45.93
2018-12-05T06:17:11.025Z,50.03
2018-12-05T06:19:39.243Z,59.47
2018-12-05T06:22:07.549Z,53.47
2018-12-05T06:24:35.690Z,65.17
2018-12-05T06:27:03.973Z,52.37
2018-12-05T06:29:32.374Z,58.27
2018-12-05T06:32:00.657Z,62.47
2018-12-05T06:34:28.799Z,60.97
2018-12-05T06:36:57.023Z,62.27
2018-12-05T06:39:25.946Z,64.00
2018-12-05T06:41:54.099Z,60.47
2018-12-05T06:44:22.937Z,62.77
2018-12-05T06:46:51.124Z,69.97
2018-12-05T06:49:19.261Z,57.33
2018-12-05T06:51:47.467Z,66.13
2018-12-05T06:54:15.607Z,68.53
2018-12-05T06:56:43.958Z,64.03
2018-12-05T06:59:12.157Z,61.73
2018-12-05T07:01:40.583Z,66.00
2018-12-05T07:04:08.875Z,58.03
2018-12-05T07:06:37.026Z,66.57
2018-12-05T07:09:07.585Z,73.80
2018-12-05T07:11:35.727Z,72.53
2018-12-05T07:14:03.943Z,69.13
2018-12-05T07:16:32.193Z,73.27
2018-12-05T07:19:00.330Z,65.67
2018-12-05T07:21:28.575Z,72.17
2018-12-05T07:23:56.791Z,78.87
2018-12-05T07:26:24.982Z,75.53
2018-12-05T07:28:53.125Z,79.57
2018-12-05T07:31:21.330Z,84.77
2018-12-05T07:33:49.738Z,86.13
2018-12-05T07:36:18.631Z,77.33
2018-12-05T07:38:46.804Z,90.73
2018-12-05T07:41:14.950Z,90.40
2018-12-05T07:43:43.089Z,86.30
2018-12-05T07:46:11.564Z,81.57
2018-12-05T07:48:39.708Z,82.73
2018-12-05T07:51:07.929Z,81.57
2018-12-05T07:53:36.682Z,75.93
2018-12-05T07:56:04.885Z,71.47
2018-12-05T07:58:33.032Z,87.03
2018-12-05T08:01:01.238Z,72.20
2018-12-05T08:03:29.461Z,67.63
2018-12-05T08:05:57.647Z,72.23
2018-12-05T08:08:25.804Z,82.00
2018-12-05T08:10:54.658Z,79.43
2018-12-05T08:13:22.797Z,70.90
2018-12-05T08:15:50.944Z,70.43
2018-12-05T08:18:19.150Z,73.77
2018-12-05T08:20:47.392Z,68.77
2018-12-05T08:23:15.547Z,64.37
2018-12-05T08:25:43.878Z,68.03
2018-12-05T08:28:12.073Z,69.97
2018-12-05T08:30:40.435Z,51.63
2018-12-05T08:33:08.582Z,64.07
2018-12-05T08:35:36.719Z,52.97
2018-12-05T08:38:05.020Z,57.77
2018-12-05T08:40:33.172Z,47.03
2018-12-05T08:43:01.574Z,46.83
2018-12-05T08:45:29.874Z,50.53
2018-12-05T08:47:58.895Z,50.17
2018-12-05T08:50:27.218Z,50.53
2018-12-05T08:52:55.565Z,54.67
2018-12-05T08:55:23.806Z,52.60
2018-12-05T08:57:52.000Z,56.60
2018-12-05T09:00:20.242Z,53.13
2018-12-05T09:02:49.427Z,54.23
2018-12-05T09:05:17.701Z,50.90
2018-12-05T09:07:46.626Z,50.07
2018-12-05T09:10:14.847Z,47.40
2018-12-05T09:12:42.991Z,53.07
2018-12-05T09:15:11.268Z,48.60
2018-12-05T09:17:39.408Z,46.83
2018-12-05T09:20:07.918Z,43.73
2018-12-05T09:22:41.164Z,44.30
2018-12-05T09:25:07.561Z,30.30
2018-12-05T09:27:35.948Z,33.93
2018-12-05T09:30:05.397Z,28.47
2018-12-05T09:32:33.524Z,27.97
2018-12-05T09:35:01.750Z,24.77
2018-12-05T09:37:29.870Z,23.70
2018-12-05T09:39:58.066Z,25.73
2018-12-05T09:42:26.221Z,25.90
2018-12-05T09:44:54.863Z,20.13
2018-12-05T09:47:22.999Z,19.63
2018-12-05T09:49:51.295Z,22.07
2018-12-05T09:52:19.435Z,21.10
2018-12-05T09:54:47.581Z,19.53
2018-12-05T09:57:15.807Z,15.47
2018-12-05T09:59:43.991Z,20.77
2018-12-05T10:02:12.456Z,18.63
2018-12-05T10:04:40.727Z,16.20
2018-12-05T10:07:09.072Z,22.50
2018-12-05T10:09:40.468Z,23.50
2018-12-05T10:12:08.639Z,20.00
2018-12-05T10:14:36.916Z,22.63
2018-12-05T10:17:05.175Z,18.23
2018-12-05T10:19:33.449Z,26.77
2018-12-05T10:22:02.154Z,21.13
2018-12-05T10:24:30.444Z,20.87
2018-12-05T10:26:58.571Z,19.40
2018-12-05T10:29:26.995Z,23.30
2018-12-05T10:31:55.273Z,22.63
2018-12-05T10:34:23.424Z,21.27
2018-12-05T10:36:51.634Z,26.97
2018-12-05T10:39:19.820Z,19.40
2018-12-05T10:41:48.821Z,23.57
2018-12-05T10:44:17.031Z,24.30
2018-12-05T10:46:45.250Z,23.87
2018-12-05T10:49:13.534Z,27.57
2018-12-05T10:51:41.678Z,21.37
2018-12-05T10:54:09.854Z,22.13
2018-12-05T10:56:37.987Z,21.27
2018-12-05T10:59:06.202Z,16.73
2018-12-05T11:01:39.958Z,20.37
2018-12-05T11:04:13.920Z,24.20
2018-12-05T11:12:52.913Z,16.60
2018-12-05T11:15:26.998Z,19.97
2018-12-05T11:18:01.044Z,19.47
2018-12-05T11:20:34.995Z,17.97
2018-12-05T11:23:08.837Z,17.03
2018-12-05T11:25:37.064Z,16.60
2018-12-05T11:28:05.269Z,18.83
2018-12-05T11:30:33.423Z,20.83
2018-12-05T11:33:01.923Z,20.50
2018-12-05T11:35:30.080Z,18.90
2018-12-05T11:37:58.379Z,20.83
2018-12-05T11:40:26.720Z,18.47
2018-12-05T11:42:54.924Z,23.67
2018-12-05T11:45:23.066Z,23.57
2018-12-05T11:47:52.194Z,20.40
2018-12-05T11:50:20.318Z,25.53
2018-12-05T11:52:48.466Z,16.87
2018-12-05T11:55:16.610Z,21.17
2018-12-05T11:57:44.853Z,20.23
2018-12-05T12:00:13.031Z,20.63
2018-12-05T12:02:41.186Z,19.77
2018-12-05T12:05:09.549Z,26.37
2018-12-05T12:07:38.380Z,29.73
2018-12-05T12:10:06.702Z,16.37
2018-12-05T12:12:40.668Z,22.37
2018-12-05T12:15:10.939Z,23.10
2018-12-05T12:17:39.530Z,24.63
2018-12-05T12:20:07.804Z,24.37
2018-12-05T12:22:35.951Z,26.53
2018-12-05T12:25:04.370Z,17.93
2018-12-05T12:27:32.524Z,24.17
2018-12-05T12:30:00.664Z,26.07
2018-12-05T12:32:28.812Z,22.07
2018-12-05T12:34:57.051Z,21.57
2018-12-05T12:37:25.199Z,19.63
2018-12-05T12:39:53.352Z,20.43
2018-12-05T12:42:21.563Z,23.93
2018-12-05T12:44:49.759Z,24.30
2018-12-05T12:47:17.903Z,23.90
2018-12-05T12:49:46.048Z,20.80
2018-12-05T12:52:14.271Z,26.93
2018-12-05T12:54:42.422Z,25.93
2018-12-05T12:57:10.555Z,21.40
2018-12-05T12:59:38.731Z,22.97
2018-12-05T13:02:06.889Z,20.40
2018-12-05T13:04:35.252Z,22.27
2018-12-05T13:07:03.520Z,22.53
2018-12-05T13:09:31.833Z,22.97
2018-12-05T13:12:00.009Z,18.60
2018-12-05T13:14:28.281Z,21.47
2018-12-05T13:16:56.542Z,20.70
2018-12-05T13:19:24.683Z,24.43
2018-12-05T13:21:53.079Z,22.90
2018-12-05T13:24:21.212Z,18.20
2018-12-05T13:26:49.379Z,22.40
2018-12-05T13:29:17.555Z,23.77
2018-12-05T13:31:45.695Z,19.23
2018-12-05T13:34:13.829Z,23.63
2018-12-05T13:36:42.028Z,24.30
2018-12-05T13:39:10.295Z,21.70
2018-12-05T13:41:38.730Z,17.97
2018-12-05T13:44:07.340Z,20.47
2018-12-05T13:46:36.066Z,22.17
2018-12-05T13:49:04.410Z,22.80
2018-12-05T13:51:32.571Z,21.50
2018-12-05T13:54:00.717Z,17.17
2018-12-05T13:56:28.854Z,17.57
2018-12-05T13:58:57.111Z,18.73
2018-12-05T14:01:25.259Z,18.87
2018-12-05T14:03:53.396Z,20.63
2018-12-05T14:06:21.546Z,21.03
2018-12-05T14:08:49.745Z,19.17
2018-12-05T14:11:17.943Z,22.10
2018-12-05T14:13:46.742Z,18.63
2018-12-05T14:16:14.945Z,18.70
2018-12-05T14:18:43.134Z,21.03
2018-12-05T14:21:11.274Z,18.43
2018-12-05T14:23:39.402Z,18.30
2018-12-05T14:26:07.642Z,20.10
2018-12-05T14:28:36.883Z,18.37
2018-12-05T14:31:05.014Z,22.83
2018-12-05T14:33:34.051Z,16.20
2018-12-05T14:36:02.504Z,21.70
2018-12-05T14:38:30.643Z,18.40
2018-12-05T14:40:58.781Z,17.73
2018-12-05T14:43:27.451Z,20.70
2018-12-05T14:45:55.591Z,18.17
2018-12-05T14:48:23.844Z,19.30
2018-12-05T14:50:52.026Z,15.70
2018-12-05T14:53:20.168Z,21.17
2018-12-05T14:55:48.363Z,23.77
2018-12-05T14:58:16.789Z,20.20
2018-12-05T15:00:45.548Z,19.63
2018-12-05T15:03:13.679Z,17.70
2018-12-05T15:05:41.942Z,17.17
2018-12-05T15:08:10.086Z,18.47
2018-12-05T15:10:38.215Z,16.53
2018-12-05T15:13:06.357Z,21.77
2018-12-05T15:15:34.596Z,20.67
2018-12-05T15:18:02.742Z,19.03
2018-12-05T15:20:31.019Z,18.87
2018-12-05T15:22:59.230Z,17.13
2018-12-05T15:25:27.478Z,13.37
2018-12-05T15:27:55.624Z,16.77
2018-12-05T15:30:23.924Z,17.23
2018-12-05T15:32:52.093Z,20.90
2018-12-05T15:35:20.240Z,18.47
2018-12-05T15:37:48.594Z,19.80
2018-12-05T15:40:16.824Z,17.33
2018-12-05T15:42:45.000Z,17.03
2018-12-05T15:45:21.374Z,15.93
2018-12-05T15:47:44.173Z,25.30
2018-12-05T15:50:12.397Z,17.57
2018-12-05T15:52:40.548Z,19.87
2018-12-05T15:55:08.788Z,14.93
2018-12-05T15:57:36.944Z,17.97
2018-12-05T16:00:07.763Z,16.50
2018-12-05T16:02:36.127Z,21.47
2018-12-05T16:05:05.950Z,17.40
2018-12-05T16:07:34.082Z,16.80
2018-12-05T16:10:02.283Z,18.33
2018-12-05T16:12:30.435Z,19.77
2018-12-05T16:14:58.593Z,18.40
2018-12-05T16:17:26.800Z,21.00
2018-12-05T16:19:54.935Z,20.27
2018-12-05T16:22:23.078Z,23.17
2018-12-05T16:24:51.241Z,20.57
2018-12-05T16:27:19.411Z,23.43
2018-12-05T16:29:47.587Z,21.73
2018-12-05T16:32:15.742Z,21.37
2018-12-05T16:34:44.168Z,25.07
2018-12-05T16:37:13.052Z,22.17
2018-12-05T16:39:41.222Z,22.17
2018-12-05T16:42:09.390Z,23.20
2018-12-05T16:44:37.526Z,23.43
2018-12-05T16:47:05.688Z,21.33
2018-12-05T16:49:33.846Z,21.63
2018-12-05T16:52:02.001Z,22.93
2018-12-05T16:54:30.551Z,20.53
2018-12-05T16:56:58.701Z,21.63
2018-12-05T16:59:26.848Z,19.17
2018-12-05T17:01:55.072Z,21.37
2018-12-05T17:04:23.270Z,19.70
2018-12-05T17:06:51.455Z,22.03
2018-12-05T17:09:25.793Z,20.37
2018-12-05T17:11:49.899Z,21.27
2018-12-05T17:14:18.108Z,21.37
2018-12-05T17:16:46.251Z,18.27
2018-12-05T17:19:14.399Z,23.37
2018-12-05T17:21:42.542Z,23.10
2018-12-05T17:24:11.607Z,21.77
2018-12-05T17:26:39.835Z,25.07
2018-12-05T17:29:08.163Z,18.10
2018-12-05T17:31:37.043Z,21.43
2018-12-05T17:34:05.224Z,20.50
2018-12-05T17:36:33.385Z,23.70
2018-12-05T17:39:01.524Z,26.60
2018-12-05T17:41:29.697Z,25.10
2018-12-05T17:43:57.932Z,27.07
2018-12-05T17:46:26.067Z,23.90
2018-12-05T17:48:54.219Z,21.47
2018-12-05T17:51:22.366Z,26.40
2018-12-05T17:53:50.555Z,24.67
2018-12-05T17:56:19.257Z,21.47
2018-12-05T17:58:47.441Z,22.80
2018-12-05T18:01:15.655Z,19.90
2018-12-05T18:03:43.839Z,23.97
2018-12-05T18:06:12.102Z,20.87
2018-12-05T18:08:40.416Z,21.20
2018-12-05T18:11:08.550Z,21.17
2018-12-05T18:13:36.776Z,24.87
2018-12-05T18:16:04.927Z,23.83
2018-12-05T18:18:33.063Z,24.47
2018-12-05T18:21:01.205Z,22.27
2018-12-05T18:23:29.388Z,23.40
2018-12-05T18:25:57.553Z,24.37
2018-12-05T18:28:25.690Z,25.50
2018-12-05T18:30:54.345Z,26.20
2018-12-05T18:33:22.490Z,24.07
2018-12-05T18:35:50.624Z,23.40
2018-12-05T18:38:18.755Z,27.10
2018-12-05T18:40:46.987Z,20.53
2018-12-05T18:43:15.138Z,24.27
2018-12-05T18:45:43.288Z,22.40
2018-12-05T18:48:11.435Z,26.00
2018-12-05T18:50:39.720Z,20.80
2018-12-05T18:53:07.856Z,22.47
2018-12-05T18:55:36.099Z,25.97
2018-12-05T18:58:04.354Z,25.80
2018-12-05T19:00:32.560Z,29.33
2018-12-05T19:03:00.989Z,26.43
2018-12-05T19:05:30.017Z,24.80
2018-12-05T19:07:58.264Z,28.40
2018-12-05T19:10:26.602Z,28.20
2018-12-05T19:12:54.760Z,29.13
2018-12-05T19:15:22.978Z,27.67
2018-12-05T19:17:51.222Z,24.63
2018-12-05T19:20:19.540Z,25.87
2018-12-05T19:22:47.733Z,31.23
2018-12-05T19:25:16.027Z,33.23
2018-12-05T19:27:44.236Z,33.70
2018-12-05T19:30:12.531Z,30.60
2018-12-05T19:32:41.356Z,29.23
2018-12-05T19:35:09.623Z,27.77
2018-12-05T19:37:38.233Z,31.87
2018-12-05T19:40:06.514Z,27.13
2018-12-05T19:42:34.758Z,29.80
2018-12-05T19:45:03.003Z,31.40
2018-12-05T19:47:31.154Z,28.10
2018-12-05T19:49:59.374Z,32.17
2018-12-05T19:52:27.522Z,31.47
2018-12-05T19:54:56.566Z,29.50
2018-12-05T19:57:24.720Z,34.27
2018-12-05T19:59:52.963Z,31.30
2018-12-05T20:02:21.109Z,31.87
2018-12-05T20:04:49.253Z,36.87
2018-12-05T20:07:17.485Z,35.73
2018-12-05T20:09:45.783Z,32.93
2018-12-05T20:12:13.934Z,29.63
2018-12-05T20:14:42.176Z,37.43
2018-12-05T20:17:10.341Z,37.97
2018-12-05T20:19:38.502Z,38.70
2018-12-05T20:22:06.753Z,34.20
2018-12-05T20:24:35.016Z,29.50
2018-12-05T20:27:03.162Z,37.80
2018-12-05T20:29:31.582Z,36.40
2018-12-05T20:32:00.909Z,37.40
2018-12-05T20:34:29.054Z,36.53
2018-12-05T20:36:57.671Z,36.37
2018-12-05T20:39:26.383Z,49.90
2018-12-05T20:42:00.052Z,37.13
2018-12-05T20:44:28.300Z,41.37
2018-12-05T20:46:56.430Z,38.20
2018-12-05T20:49:24.567Z,43.23
2018-12-05T20:51:52.726Z,38.33
2018-12-05T20:54:20.868Z,36.97
2018-12-05T20:56:49.026Z,41.37
2018-12-05T20:59:18.113Z,44.27
2018-12-05T21:01:46.462Z,42.53
2018-12-05T21:04:14.812Z,41.47
2018-12-05T21:06:42.969Z,43.13
2018-12-05T21:09:11.173Z,49.00
2018-12-05T21:11:39.478Z,46.77
2018-12-05T21:14:08.948Z,50.80
2018-12-05T21:16:37.120Z,50.07
2018-12-05T21:19:05.740Z,46.97
2018-12-05T21:21:33.989Z,45.50
2018-12-05T21:24:02.162Z,46.47
2018-12-05T21:26:30.303Z,46.37
2018-12-05T21:28:58.441Z,53.33
2018-12-05T21:31:26.571Z,48.73
2018-12-05T21:33:54.713Z,45.47
2018-12-05T21:36:22.960Z,45.47
2018-12-05T21:38:51.140Z,49.37
2018-12-05T21:41:19.297Z,48.00
2018-12-05T21:43:47.784Z,42.33
2018-12-05T21:46:16.037Z,47.43
2018-12-05T21:48:50.069Z,50.53
2018-12-05T21:51:19.661Z,47.63
2018-12-05T21:53:47.795Z,43.07
2018-12-05T21:56:15.954Z,48.47
2018-12-05T21:58:44.137Z,45.90
2018-12-05T22:01:12.276Z,44.60
2018-12-05T22:03:40.431Z,47.30
2018-12-05T22:06:08.720Z,46.13
2018-12-05T22:08:36.858Z,56.57
2018-12-05T22:11:05.226Z,50.80
2018-12-05T22:13:33.498Z,49.27
2018-12-05T22:16:01.665Z,49.80
2018-12-05T22:18:29.852Z,53.37
2018-12-05T22:20:58.009Z,57.37
2018-12-05T22:23:26.150Z,56.07
2018-12-05T22:25:55.920Z,59.73
2018-12-05T22:28:24.314Z,55.93
2018-12-05T22:30:52.448Z,59.60
2018-12-05T22:33:20.596Z,56.00
2018-12-05T22:35:48.894Z,55.33
2018-12-05T22:38:17.036Z,54.67
2018-12-05T22:40:45.325Z,54.80
2018-12-05T22:43:13.568Z,54.53
2018-12-05T22:45:41.690Z,57.90
2018-12-05T22:48:09.965Z,56.27
2018-12-05T22:50:38.179Z,53.40
2018-12-05T22:53:06.375Z,51.87
2018-12-05T22:55:34.578Z,56.17
2018-12-05T22:58:02.851Z,51.13
2018-12-05T23:00:31.077Z,51.43
2018-12-05T23:02:59.251Z,49.07
2018-12-05T23:05:27.401Z,50.63
2018-12-05T23:07:55.532Z,51.47
2018-12-05T23:10:23.836Z,47.30
2018-12-05T23:12:52.052Z,47.10
2018-12-05T23:15:20.211Z,48.27
2018-12-05T23:17:48.400Z,47.90
2018-12-05T23:20:16.549Z,50.97
2018-12-05T23:22:44.699Z,50.73
2018-12-05T23:25:13.418Z,50.17
2018-12-05T23:27:41.584Z,50.23
2018-12-05T23:30:10.203Z,48.60
2018-12-05T23:32:38.474Z,47.30
2018-12-05T23:35:06.616Z,47.93
2018-12-05T23:37:34.789Z,50.00
2018-12-05T23:40:03.398Z,51.80
2018-12-05T23:42:32.431Z,45.77
2018-12-05T23:45:00.690Z,49.30
2018-12-05T23:47:29.086Z,52.43
2018-12-05T23:49:57.255Z,47.43
2018-12-05T23:52:25.458Z,53.27
2018-12-05T23:54:53.606Z,50.63
2018-12-05T23:57:24.421Z,52.80
2018-12-05T23:59:52.558Z,54.77
